Time;durP1;ratioP1;P1;durP2;ratioP2;P2;SDS_P1;SDS_P2;PMS_P1;PMS_P2;Temp;Humidity;BMP_temperature;BMP_pressure;BME280_temperature;BME280_humidity;BME280_pressure;Samples;Min_cycle;Max_cycle;Signal;HPM_P1;HPM_P2
2022/05/19 00:02:10;;;;;;;21.27;19.15;;;15.40;99.90;;;;;;5054679;28;20106;-52
2022/05/19 00:04:37;;;;;;;24.52;19.95;;;15.40;99.90;;;;;;5024177;28;20132;-50
2022/05/19 00:07:03;;;;;;;19.65;17.50;;;15.40;99.90;;;;;;5025771;28;20056;-55
2022/05/19 00:09:29;;;;;;;18.58;16.77;;;15.40;99.90;;;;;;5027154;28;20064;-53
2022/05/19 00:11:57;;;;;;;19.85;17.77;;;15.40;99.90;;;;;;5069090;28;20117;-51
2022/05/19 00:14:23;;;;;;;20.27;18.10;;;15.50;99.90;;;;;;5045039;28;20104;-53
2022/05/19 00:16:49;;;;;;;20.80;18.70;;;15.40;99.90;;;;;;5045157;28;20444;-52
2022/05/19 00:19:16;;;;;;;22.35;20.25;;;15.40;99.90;;;;;;5031616;28;20049;-52
2022/05/19 00:21:42;;;;;;;21.25;19.33;;;15.30;99.90;;;;;;5053078;28;20044;-56
2022/05/19 00:24:10;;;;;;;21.83;19.75;;;15.30;99.90;;;;;;5046005;28;20060;-53
2022/05/19 00:26:36;;;;;;;23.02;20.58;;;15.30;99.90;;;;;;5045956;28;20044;-56
2022/05/19 00:29:02;;;;;;;21.50;19.10;;;15.30;99.90;;;;;;5032983;28;20568;-46
2022/05/19 00:31:29;;;;;;;21.95;19.60;;;15.20;99.90;;;;;;5012905;28;20087;-50
2022/05/19 00:33:56;;;;;;;22.38;20.00;;;15.20;99.90;;;;;;5028550;28;20490;-55
2022/05/19 00:36:22;;;;;;;22.65;20.35;;;15.20;99.90;;;;;;5045488;28;20060;-55
2022/05/19 00:38:47;;;;;;;19.70;17.80;;;15.20;99.90;;;;;;5046818;28;20075;-55
2022/05/19 00:41:14;;;;;;;23.60;21.20;;;15.20;99.90;;;;;;5038573;28;20056;-49
2022/05/19 00:43:56;;;;;;;23.00;20.63;;;15.20;99.90;;;;;;5048505;28;20040;-50
2022/05/19 00:46:28;;;;;;;20.70;18.85;;;15.20;99.90;;;;;;5034422;28;20395;-56
2022/05/19 00:49:05;;;;;;;23.58;21.15;;;15.30;99.90;;;;;;5056890;28;20133;-54
2022/05/19 00:51:42;;;;;;;22.52;20.40;;;15.30;99.90;;;;;;5041686;28;20083;-52
2022/05/19 00:54:12;;;;;;;23.45;21.10;;;15.30;99.90;;;;;;5055341;28;20052;-46
2022/05/19 00:57:03;;;;;;;23.23;20.80;;;15.40;99.90;;;;;;5042052;28;20049;-54
2022/05/19 00:59:37;;;;;;;25.38;22.83;;;15.30;99.90;;;;;;5059390;28;20115;-52
2022/05/19 01:02:07;;;;;;;23.48;21.30;;;15.30;99.90;;;;;;5060330;28;20418;-52
2022/05/19 01:04:43;;;;;;;23.85;21.45;;;15.30;99.90;;;;;;5059412;28;20067;-51
2022/05/19 01:07:14;;;;;;;25.27;22.42;;;15.30;99.90;;;;;;5042650;28;20052;-55
2022/05/19 01:09:42;;;;;;;24.52;21.98;;;15.30;99.90;;;;;;5023085;28;20063;-54
2022/05/19 01:12:09;;;;;;;26.65;22.92;;;15.30;99.90;;;;;;5041123;28;20051;-54
2022/05/19 01:14:35;;;;;;;26.48;23.60;;;15.30;99.90;;;;;;5039209;28;20091;-53
2022/05/19 01:17:04;;;;;;;26.35;23.20;;;15.30;99.90;;;;;;5023113;28;20052;-54
2022/05/19 01:19:40;;;;;;;24.83;21.80;;;15.40;99.90;;;;;;5040690;28;20451;-52
2022/05/19 01:22:45;;;;;;;25.98;21.67;;;15.40;99.90;;;;;;5040784;28;20095;-54
2022/05/19 01:25:22;;;;;;;25.83;23.13;;;15.50;99.90;;;;;;4978361;28;20058;-54
2022/05/19 01:27:49;;;;;;;28.58;25.52;;;15.50;99.90;;;;;;4978140;28;20054;-57
2022/05/19 01:30:15;;;;;;;26.30;23.88;;;15.50;99.90;;;;;;4979112;28;20454;-54
2022/05/19 01:32:41;;;;;;;26.95;23.92;;;15.40;99.90;;;;;;4978442;28;20046;-47
2022/05/19 01:35:08;;;;;;;26.13;23.55;;;15.40;99.90;;;;;;4948245;28;20241;-48
2022/05/19 01:37:33;;;;;;;27.27;24.83;;;15.40;99.90;;;;;;4957177;28;20074;-56
2022/05/19 01:40:18;;;;;;;27.92;23.73;;;15.30;99.90;;;;;;4940099;28;20501;-52
2022/05/19 01:43:04;;;;;;;28.05;25.02;;;15.40;99.90;;;;;;4963590;28;20059;-50
2022/05/19 01:45:49;;;;;;;27.02;24.38;;;15.40;99.90;;;;;;4936682;28;20093;-49
2022/05/19 01:48:22;;;;;;;26.65;23.88;;;15.30;99.90;;;;;;4940220;28;21319;-54
2022/05/19 01:50:48;;;;;;;;;;;15.30;99.90;;;;;;4943852;28;20541;-55
2022/05/19 01:53:23;;;;;;;29.60;26.45;;;15.30;99.90;;;;;;4924737;29;19981;-53
2022/05/19 01:55:54;;;;;;;27.95;25.15;;;15.30;99.90;;;;;;4960301;28;20073;-51
2022/05/19 01:59:08;;;;;;;27.83;24.63;;;15.30;99.90;;;;;;4959269;28;20055;-55
2022/05/19 02:01:35;;;;;;;28.75;25.35;;;15.30;99.90;;;;;;4917566;28;20109;-53
2022/05/19 02:04:09;;;;;;;29.95;26.92;;;15.30;99.90;;;;;;5011221;28;20075;-57
2022/05/19 02:06:53;;;;;;;27.08;24.38;;;15.30;99.90;;;;;;5084577;28;20048;-51
2022/05/19 02:09:32;;;;;;;32.20;28.13;;;15.30;99.90;;;;;;5081377;28;20055;-54
2022/05/19 02:12:00;;;;;;;30.15;27.05;;;15.30;99.90;;;;;;5082385;28;20541;-51
2022/05/19 02:14:36;;;;;;;34.22;28.48;;;15.30;99.90;;;;;;5083448;28;20066;-56
2022/05/19 02:17:05;;;;;;;31.08;27.75;;;15.30;99.90;;;;;;5065414;28;20048;-52
2022/05/19 02:19:36;;;;;;;32.80;29.55;;;15.30;99.90;;;;;;5083470;28;20127;-55
2022/05/19 02:22:03;;;;;;;32.28;28.90;;;15.40;99.90;;;;;;5083707;28;20051;-52
2022/05/19 02:24:33;;;;;;;33.17;29.70;;;15.30;99.90;;;;;;5083140;28;20059;-54
2022/05/19 02:27:17;;;;;;;33.28;29.75;;;15.40;99.90;;;;;;5066037;28;20502;-54
2022/05/19 02:29:43;;;;;;;34.40;29.25;;;15.40;99.90;;;;;;5058719;28;20047;-53
2022/05/19 02:32:09;;;;;;;35.50;31.05;;;15.40;99.90;;;;;;5075289;28;20377;-53
2022/05/19 02:34:35;;;;;;;34.17;29.88;;;15.40;99.90;;;;;;5082330;28;20055;-50
2022/05/19 02:37:00;;;;;;;35.92;30.52;;;15.40;99.90;;;;;;5075443;28;20052;-53
2022/05/19 02:39:26;;;;;;;35.70;31.73;;;15.50;99.90;;;;;;5064956;28;20052;-52
2022/05/19 02:41:52;;;;;;;34.88;31.38;;;15.50;99.90;;;;;;5064767;28;20491;-49
2022/05/19 02:44:17;;;;;;;37.42;33.28;;;15.50;99.90;;;;;;5082744;28;20282;-56
2022/05/19 02:46:43;;;;;;;36.15;32.20;;;15.50;99.90;;;;;;5082709;28;20079;-54
2022/05/19 02:49:09;;;;;;;37.38;32.83;;;15.50;99.90;;;;;;5083144;28;20741;-56
2022/05/19 02:51:35;;;;;;;35.50;31.83;;;15.50;99.90;;;;;;5083819;28;20139;-54
2022/05/19 02:54:01;;;;;;;34.85;30.83;;;15.50;99.90;;;;;;5081844;28;20046;-52
2022/05/19 02:56:26;;;;;;;36.75;32.88;;;15.60;99.90;;;;;;5083782;28;20055;-53
2022/05/19 02:58:52;;;;;;;35.08;31.40;;;15.60;99.90;;;;;;5065419;28;20503;-51
2022/05/19 03:01:18;;;;;;;37.03;32.97;;;15.60;99.90;;;;;;5065147;28;20140;-56
2022/05/19 03:03:44;;;;;;;37.10;31.63;;;15.60;99.90;;;;;;5081280;28;20081;-52
2022/05/19 03:06:09;;;;;;;37.35;33.63;;;15.60;99.90;;;;;;5083957;28;20126;-57
2022/05/19 03:08:36;;;;;;;36.45;32.80;;;15.60;99.90;;;;;;5063251;28;20052;-54
2022/05/19 03:11:02;;;;;;;38.35;34.35;;;15.60;99.90;;;;;;5085539;28;20044;-54
2022/05/19 03:13:28;;;;;;;40.67;35.30;;;15.60;99.90;;;;;;5065130;28;20048;-50
2022/05/19 03:15:53;;;;;;;39.92;35.38;;;15.60;99.90;;;;;;5083494;28;20086;-52
2022/05/19 03:18:19;;;;;;;39.20;35.38;;;15.60;99.90;;;;;;5064504;28;20058;-56
2022/05/19 03:20:45;;;;;;;38.88;34.45;;;15.60;99.90;;;;;;5064134;28;20052;-53
2022/05/19 03:23:11;;;;;;;40.83;36.53;;;15.60;99.90;;;;;;5081870;28;20039;-53
2022/05/19 03:25:37;;;;;;;40.10;36.00;;;15.70;99.90;;;;;;5083104;28;20495;-50
2022/05/19 03:28:03;;;;;;;41.00;36.58;;;15.70;99.90;;;;;;5079805;28;20499;-47
2022/05/19 03:30:29;;;;;;;40.05;35.92;;;15.70;99.90;;;;;;5082374;28;20040;-55
2022/05/19 03:32:55;;;;;;;42.38;37.88;;;15.70;99.90;;;;;;5081513;28;20154;-54
2022/05/19 03:35:21;;;;;;;45.15;38.10;;;15.70;99.90;;;;;;5075652;28;20044;-54
2022/05/19 03:37:47;;;;;;;40.55;36.15;;;15.70;99.90;;;;;;5079919;28;20610;-54
2022/05/19 03:40:15;;;;;;;41.63;37.17;;;15.70;99.90;;;;;;5083361;28;20609;-52
2022/05/19 03:42:41;;;;;;;40.47;36.28;;;15.70;99.90;;;;;;5063233;28;20055;-53
2022/05/19 03:45:07;;;;;;;42.33;36.00;;;15.80;99.90;;;;;;5057335;28;20087;-49
2022/05/19 03:47:33;;;;;;;41.97;37.00;;;15.80;99.90;;;;;;5081211;28;20091;-54
2022/05/19 03:49:59;;;;;;;42.90;38.17;;;15.80;99.90;;;;;;5060243;28;20479;-54
2022/05/19 03:52:25;;;;;;;38.78;34.75;;;15.90;99.90;;;;;;5058824;28;20060;-52
2022/05/19 03:54:50;;;;;;;41.03;36.67;;;15.90;99.90;;;;;;5080946;28;20051;-57
2022/05/19 03:57:21;;;;;;;42.35;36.80;;;15.90;99.90;;;;;;5053922;28;20547;-55
2022/05/19 03:59:48;;;;;;;39.45;35.55;;;15.90;99.90;;;;;;5082982;28;20048;-53
2022/05/19 04:02:14;;;;;;;40.45;36.38;;;16.00;99.90;;;;;;5055841;28;20079;-50
2022/05/19 04:04:40;;;;;;;40.08;35.92;;;16.00;99.90;;;;;;5081229;28;20056;-52
2022/05/19 04:07:06;;;;;;;41.50;37.08;;;16.00;99.90;;;;;;5082047;28;20048;-51
2022/05/19 04:09:35;;;;;;;41.20;36.83;;;16.00;99.90;;;;;;5079215;28;20105;-55
2022/05/19 04:12:01;;;;;;;41.92;37.42;;;16.10;99.90;;;;;;5081515;28;20048;-52
2022/05/19 04:14:28;;;;;;;44.42;39.63;;;16.10;99.90;;;;;;5081100;28;20075;-46
2022/05/19 04:16:53;;;;;;;46.33;41.60;;;16.10;99.90;;;;;;5082186;28;20458;-53
2022/05/19 04:19:20;;;;;;;49.75;44.15;;;16.30;99.90;;;;;;5082279;28;20059;-52
2022/05/19 04:21:45;;;;;;;50.35;44.95;;;16.30;99.90;;;;;;5083113;28;20048;-57
2022/05/19 04:24:12;;;;;;;49.72;44.72;;;16.40;99.90;;;;;;5064821;28;20478;-53
2022/05/19 04:26:38;;;;;;;50.92;45.58;;;16.50;99.90;;;;;;5083131;28;20040;-52
2022/05/19 04:29:04;;;;;;;48.83;43.85;;;16.60;99.90;;;;;;5085962;28;20454;-54
2022/05/19 04:31:30;;;;;;;52.03;46.42;;;16.60;99.90;;;;;;5063356;28;20040;-55
2022/05/19 04:33:56;;;;;;;50.53;45.33;;;16.70;99.90;;;;;;5080933;28;20500;-55
2022/05/19 04:36:21;;;;;;;49.78;44.60;;;16.70;99.90;;;;;;5074262;28;20058;-55
2022/05/19 04:38:47;;;;;;;52.60;47.00;;;16.80;99.90;;;;;;5082155;28;20097;-53
2022/05/19 04:41:13;;;;;;;52.65;47.13;;;16.90;99.90;;;;;;5063416;28;20062;-57
2022/05/19 04:43:39;;;;;;;50.50;45.08;;;16.90;99.90;;;;;;5081051;28;20047;-56
2022/05/19 04:46:04;;;;;;;49.63;44.30;;;16.90;99.90;;;;;;5080038;28;20509;-55
2022/05/19 04:48:30;;;;;;;50.78;45.20;;;16.90;99.90;;;;;;5062585;28;20048;-57
2022/05/19 04:50:58;;;;;;;48.83;43.58;;;16.90;99.90;;;;;;5081497;28;20048;-53
2022/05/19 04:53:25;;;;;;;46.40;41.40;;;16.90;99.90;;;;;;5080617;28;20059;-49
2022/05/19 04:55:53;;;;;;;48.63;43.42;;;16.90;99.90;;;;;;5061969;28;20051;-56
2022/05/19 04:58:19;;;;;;;47.33;42.55;;;16.90;99.90;;;;;;5081477;28;20079;-52
2022/05/19 05:00:48;;;;;;;50.10;44.67;;;16.90;99.90;;;;;;5080457;28;20092;-49
2022/05/19 05:03:14;;;;;;;49.10;44.03;;;16.90;99.90;;;;;;5079834;28;20058;-51
2022/05/19 05:05:40;;;;;;;48.65;43.40;;;16.90;99.90;;;;;;5079048;28;20114;-50
2022/05/19 05:08:06;;;;;;;45.90;41.50;;;16.90;99.90;;;;;;5080829;28;20538;-52
2022/05/19 05:10:33;;;;;;;46.92;41.97;;;16.90;99.90;;;;;;5080474;28;20048;-53
2022/05/19 05:13:07;;;;;;;46.42;41.92;;;17.00;99.90;;;;;;5080414;28;20051;-53
2022/05/19 05:15:33;;;;;;;43.17;38.67;;;17.00;99.90;;;;;;5060302;28;20133;-48
2022/05/19 05:17:59;;;;;;;43.53;39.03;;;17.00;99.90;;;;;;5060001;28;20056;-51
2022/05/19 05:20:24;;;;;;;41.67;37.42;;;17.10;99.90;;;;;;5062209;28;20055;-53
2022/05/19 05:22:50;;;;;;;42.03;37.97;;;17.10;99.90;;;;;;5079701;28;20468;-53
2022/05/19 05:25:16;;;;;;;40.13;35.95;;;17.20;99.90;;;;;;5079895;28;20551;-55
2022/05/19 05:27:43;;;;;;;42.00;36.83;;;17.30;99.90;;;;;;5061573;28;20044;-51
2022/05/19 05:30:10;;;;;;;40.97;36.60;;;17.30;99.90;;;;;;5074555;28;20502;-53
2022/05/19 05:32:36;;;;;;;40.35;35.22;;;17.30;99.90;;;;;;5053352;28;20403;-53
2022/05/19 05:35:05;;;;;;;41.97;37.65;;;17.30;99.90;;;;;;5058006;28;20045;-49
2022/05/19 05:37:30;;;;;;;39.83;35.58;;;17.40;99.90;;;;;;5059332;28;20095;-54
2022/05/19 05:39:56;;;;;;;39.50;34.50;;;17.40;99.90;;;;;;5080322;28;20150;-52
2022/05/19 05:42:22;;;;;;;39.90;35.67;;;17.50;99.90;;;;;;5062027;28;20055;-50
2022/05/19 05:44:49;;;;;;;41.33;36.90;;;17.50;99.90;;;;;;5061199;28;20052;-53
2022/05/19 05:47:15;;;;;;;39.10;35.13;;;17.50;99.90;;;;;;5063376;28;20606;-52
2022/05/19 05:49:40;;;;;;;41.58;37.35;;;17.50;99.90;;;;;;5080435;28;20051;-53
2022/05/19 05:52:07;;;;;;;36.65;33.05;;;17.50;99.90;;;;;;5060256;28;20040;-47
2022/05/19 05:54:33;;;;;;;35.17;31.35;;;17.50;99.90;;;;;;5062462;28;20060;-55
2022/05/19 05:56:59;;;;;;;29.50;26.35;;;17.40;99.90;;;;;;5079693;28;20044;-53
2022/05/19 05:59:24;;;;;;;31.45;25.60;;;17.40;99.90;;;;;;5080301;28;20082;-50
2022/05/19 06:01:50;;;;;;;30.75;27.42;;;17.50;99.90;;;;;;5080099;28;20123;-54
2022/05/19 06:04:16;;;;;;;27.10;24.20;;;17.50;99.90;;;;;;5082680;28;20064;-49
2022/05/19 06:06:45;;;;;;;21.88;19.42;;;17.40;99.90;;;;;;5106218;28;20067;-50
2022/05/19 06:09:13;;;;;;;24.30;18.20;;;17.50;99.90;;;;;;5101241;28;20043;-52
2022/05/19 06:11:39;;;;;;;23.42;17.15;;;17.40;99.90;;;;;;5083879;28;20483;-50
2022/05/19 06:14:05;;;;;;;15.90;13.00;;;17.40;99.90;;;;;;5116699;28;20126;-55
2022/05/19 06:16:31;;;;;;;23.85;15.05;;;17.40;99.90;;;;;;5099260;28;20054;-49
2022/05/19 06:18:57;;;;;;;14.48;10.43;;;17.30;99.90;;;;;;5102805;28;20039;-55
2022/05/19 06:21:22;;;;;;;18.05;11.60;;;17.40;99.90;;;;;;5094359;28;20393;-47
2022/05/19 06:23:48;;;;;;;18.13;10.23;;;17.40;99.90;;;;;;5118224;28;20052;-52
2022/05/19 06:26:14;;;;;;;15.38;12.35;;;17.40;99.90;;;;;;5087840;28;20055;-55
2022/05/19 06:28:40;;;;;;;17.58;13.13;;;17.40;99.90;;;;;;5080863;28;20051;-56
2022/05/19 06:31:06;;;;;;;18.10;15.50;;;17.40;99.90;;;;;;5088838;28;20040;-52
2022/05/19 06:33:34;;;;;;;20.40;16.55;;;17.50;99.90;;;;;;5116956;28;20051;-54
2022/05/19 06:35:59;;;;;;;20.73;16.02;;;17.50;99.90;;;;;;5072469;28;20479;-51
2022/05/19 06:38:25;;;;;;;23.17;18.70;;;17.60;99.90;;;;;;5111997;28;20053;-51
2022/05/19 06:40:51;;;;;;;22.17;19.98;;;17.70;99.90;;;;;;5099840;28;20050;-52
2022/05/19 06:43:19;;;;;;;23.30;20.80;;;17.80;99.90;;;;;;5069837;28;20051;-54
2022/05/19 06:45:45;;;;;;;23.80;21.27;;;17.90;99.90;;;;;;5085927;28;20046;-52
2022/05/19 06:48:11;;;;;;;27.88;24.35;;;18.00;99.90;;;;;;5105834;27;20043;-54
2022/05/19 06:50:37;;;;;;;24.20;21.88;;;18.10;99.90;;;;;;5098468;28;20497;-45
2022/05/19 06:53:03;;;;;;;24.38;21.77;;;18.20;99.90;;;;;;5087091;27;20139;-52
2022/05/19 06:55:34;;;;;;;25.52;22.83;;;18.30;99.90;;;;;;5118095;27;20043;-51
2022/05/19 06:58:00;;;;;;;26.73;24.10;;;18.30;99.90;;;;;;5104600;28;20047;-51
2022/05/19 07:00:28;;;;;;;26.65;24.10;;;18.40;99.90;;;;;;5103177;28;20058;-51
2022/05/19 07:02:59;;;;;;;22.52;20.15;;;18.40;99.90;;;;;;5097191;28;20083;-52
2022/05/19 07:05:28;;;;;;;22.13;19.80;;;18.40;99.90;;;;;;5099093;27;20456;-52
2022/05/19 07:07:54;;;;;;;22.92;20.70;;;18.40;99.90;;;;;;5075758;28;20184;-53
2022/05/19 07:10:22;;;;;;;19.88;17.63;;;18.50;99.90;;;;;;5078215;28;20156;-52
2022/05/19 07:12:48;;;;;;;23.27;20.88;;;18.60;99.90;;;;;;5080064;28;20048;-52
2022/05/19 07:15:17;;;;;;;24.05;21.67;;;18.60;99.90;;;;;;5096862;27;20091;-58
2022/05/19 07:17:43;;;;;;;24.00;21.63;;;18.70;99.90;;;;;;5079395;28;20050;-51
2022/05/19 07:22:54;;;;;;;22.52;20.27;;;18.80;99.90;;;;;;5122621;27;20049;-53
2022/05/19 07:25:20;;;;;;;19.90;17.95;;;18.90;99.90;;;;;;5105621;27;20043;-51
2022/05/19 07:27:46;;;;;;;23.65;21.35;;;18.90;99.90;;;;;;5125051;27;20368;-53
2022/05/19 07:30:12;;;;;;;21.38;19.38;;;19.00;99.90;;;;;;5100099;27;20040;-50
2022/05/19 07:32:39;;;;;;;20.98;18.85;;;19.20;99.90;;;;;;5097796;27;20142;-52
2022/05/19 07:35:07;;;;;;;22.42;20.20;;;19.30;99.90;;;;;;5097679;27;20073;-53
2022/05/19 07:37:33;;;;;;;20.85;18.73;;;19.40;99.90;;;;;;5097935;28;20137;-44
2022/05/19 07:39:59;;;;;;;22.67;18.50;;;19.50;99.90;;;;;;5080373;28;20043;-54
2022/05/19 07:42:25;;;;;;;19.35;17.35;;;19.60;99.90;;;;;;5095917;27;20043;-54
2022/05/19 07:44:51;;;;;;;22.27;19.98;;;19.60;99.90;;;;;;5077770;28;20047;-53
2022/05/19 07:47:17;;;;;;;23.08;20.77;;;19.70;99.90;;;;;;5078988;28;20079;-52
2022/05/19 07:49:43;;;;;;;20.88;18.92;;;19.70;99.90;;;;;;5077899;28;20051;-51
2022/05/19 07:52:10;;;;;;;23.50;21.13;;;19.70;99.90;;;;;;5097900;28;20047;-48
2022/05/19 07:54:36;;;;;;;22.30;20.30;;;19.70;99.90;;;;;;5093612;27;20055;-50
2022/05/19 07:57:03;;;;;;;25.75;23.40;;;19.70;99.90;;;;;;5099261;27;20048;-52
2022/05/19 07:59:30;;;;;;;24.90;22.30;;;19.70;99.90;;;;;;5108725;27;20492;-54
2022/05/19 08:01:56;;;;;;;25.45;23.00;;;19.70;99.90;;;;;;5107206;27;20044;-51
2022/05/19 08:04:23;;;;;;;24.88;22.33;;;19.60;99.90;;;;;;5092122;27;20051;-53
2022/05/19 08:06:50;;;;;;;26.23;23.75;;;19.50;99.90;;;;;;5103198;28;20581;-53
2022/05/19 08:12:03;;;;;;;28.67;26.02;;;19.40;99.90;;;;;;5100083;28;20055;-55
2022/05/19 08:17:19;;;;;;;26.77;24.05;;;19.50;99.90;;;;;;5102652;28;20229;-51
2022/05/19 08:19:48;;;;;;;26.42;24.02;;;19.50;99.90;;;;;;5103394;28;20054;-56
2022/05/19 08:22:14;;;;;;;28.63;26.00;;;19.60;99.90;;;;;;5097027;28;20481;-52
2022/05/19 08:24:39;;;;;;;26.65;24.00;;;19.70;99.90;;;;;;5083097;28;20109;-57
2022/05/19 08:27:06;;;;;;;27.02;24.42;;;19.80;99.90;;;;;;5103848;28;20490;-58
2022/05/19 08:29:32;;;;;;;25.90;23.35;;;20.00;99.90;;;;;;5104559;28;20096;-52
2022/05/19 08:31:58;;;;;;;25.52;23.00;;;20.20;99.90;;;;;;5071826;28;20064;-52
2022/05/19 08:34:24;;;;;;;25.00;22.70;;;20.30;99.90;;;;;;5098102;28;20044;-54
2022/05/19 08:36:50;;;;;;;24.88;22.48;;;20.50;99.90;;;;;;5094016;28;20040;-55
2022/05/19 08:39:18;;;;;;;27.02;24.30;;;20.60;99.90;;;;;;5105627;28;20129;-53
2022/05/19 08:41:48;;;;;;;26.58;24.05;;;20.80;99.90;;;;;;5104336;28;20074;-55
2022/05/19 08:44:22;;;;;;;22.70;20.60;;;20.90;99.90;;;;;;5100773;28;20400;-50
2022/05/19 08:46:50;;;;;;;24.35;22.02;;;21.00;99.90;;;;;;5092733;28;20539;-55
2022/05/19 08:49:32;;;;;;;24.42;22.00;;;21.20;99.90;;;;;;5100371;28;20397;-54
2022/05/19 08:52:05;;;;;;;25.95;23.52;;;21.30;99.90;;;;;;5084619;28;20477;-50
2022/05/19 08:54:32;;;;;;;25.45;23.00;;;21.40;99.90;;;;;;5094809;28;20055;-55
2022/05/19 08:57:04;;;;;;;23.73;21.65;;;21.50;99.90;;;;;;5101022;28;20063;-51
2022/05/19 08:59:51;;;;;;;23.92;21.73;;;21.60;99.90;;;;;;5100223;28;20057;-54
2022/05/19 09:02:29;;;;;;;24.45;22.05;;;21.60;99.90;;;;;;5092128;28;20460;-48
2022/05/19 09:05:16;;;;;;;22.25;20.25;;;21.60;99.90;;;;;;5088682;28;20048;-49
2022/05/19 09:08:07;;;;;;;22.52;20.40;;;21.70;99.90;;;;;;5093273;28;20120;-53
2022/05/19 09:10:44;;;;;;;24.65;22.40;;;21.80;99.90;;;;;;5092740;28;20059;-57
2022/05/19 09:13:16;;;;;;;22.30;20.30;;;21.80;99.90;;;;;;5093342;28;20394;-52
2022/05/19 09:15:45;;;;;;;19.85;18.15;;;21.90;99.90;;;;;;5095813;28;20051;-52
2022/05/19 09:18:13;;;;;;;20.50;18.70;;;22.10;99.90;;;;;;5095105;28;20501;-54
2022/05/19 09:20:53;;;;;;;21.08;18.95;;;22.20;99.90;;;;;;5095858;28;20733;-54
2022/05/19 09:23:19;;;;;;;18.75;16.95;;;22.30;99.90;;;;;;5093319;28;20050;-52
2022/05/19 09:25:51;;;;;;;20.13;18.45;;;22.40;99.90;;;;;;5080170;28;20052;-52
2022/05/19 09:28:19;;;;;;;21.98;19.67;;;22.30;99.90;;;;;;5077155;28;20445;-51
2022/05/19 09:30:54;;;;;;;20.88;18.70;;;22.30;99.90;;;;;;5089083;28;20044;-51
2022/05/19 09:33:35;;;;;;;21.33;19.30;;;22.20;99.90;;;;;;5095760;28;20055;-54
2022/05/19 09:36:12;;;;;;;23.42;21.05;;;22.20;99.90;;;;;;5088665;28;20051;-53
2022/05/19 09:38:48;;;;;;;23.98;21.83;;;22.00;99.90;;;;;;5076851;28;20055;-53
2022/05/19 09:41:36;;;;;;;23.77;21.38;;;21.90;99.90;;;;;;5092624;28;20808;-52
2022/05/19 09:44:04;;;;;;;23.73;21.67;;;21.90;99.90;;;;;;5096370;28;20035;-55
2022/05/19 09:46:41;;;;;;;23.40;21.17;;;22.00;99.90;;;;;;5078809;28;20181;-54
2022/05/19 09:49:24;;;;;;;21.95;19.45;;;22.10;99.90;;;;;;5095921;28;20043;-49
2022/05/19 09:51:51;;;;;;;22.55;20.55;;;22.30;99.90;;;;;;5094114;28;20048;-51
2022/05/19 09:54:17;;;;;;;23.65;21.33;;;22.40;99.90;;;;;;5095222;28;20043;-55
2022/05/19 09:56:49;;;;;;;22.15;20.15;;;22.70;99.90;;;;;;5092705;28;20510;-53
2022/05/19 09:59:24;;;;;;;20.65;18.75;;;22.90;99.90;;;;;;5076441;28;20059;-54
2022/05/19 10:02:01;;;;;;;20.00;18.23;;;23.10;99.90;;;;;;5099773;28;20290;-52
2022/05/19 10:04:41;;;;;;;19.65;17.88;;;23.30;99.90;;;;;;5072839;28;20116;-51
2022/05/19 10:07:19;;;;;;;20.40;18.55;;;23.40;99.90;;;;;;5061814;28;20051;-49
2022/05/19 10:09:47;;;;;;;18.20;16.70;;;23.40;99.90;;;;;;5080315;28;20047;-55
2022/05/19 10:12:25;;;;;;;19.58;17.60;;;23.20;99.90;;;;;;5060416;28;20146;-55
2022/05/19 10:15:08;;;;;;;18.88;16.90;;;23.00;99.90;;;;;;5079838;28;20054;-53
2022/05/19 10:18:07;;;;;;;19.67;17.85;;;23.00;99.90;;;;;;5072666;28;20052;-55
2022/05/19 10:20:38;;;;;;;18.02;16.45;;;22.90;99.90;;;;;;5061910;28;20498;-52
2022/05/19 10:23:19;;;;;;;19.83;17.85;;;22.90;99.90;;;;;;5061810;28;20067;-51
2022/05/19 10:26:15;;;;;;;18.40;16.80;;;23.10;99.90;;;;;;5066632;28;20123;-52
2022/05/19 10:32:34;;;;;;;16.70;15.20;;;23.90;99.90;;;;;;5075143;28;20565;-54
2022/05/19 10:35:37;;;;;;;14.45;13.02;;;24.10;99.90;;;;;;5083301;28;20047;-56
2022/05/19 10:38:12;;;;;;;12.75;11.65;;;24.30;99.90;;;;;;5065222;28;20109;-56
2022/05/19 10:41:13;;;;;;;13.88;12.48;;;24.30;99.90;;;;;;5085069;28;20616;-55
2022/05/19 10:43:49;;;;;;;9.80;8.90;;;24.40;99.90;;;;;;5083138;28;20097;-55
2022/05/19 10:46:15;;;;;;;11.20;9.73;;;24.60;99.90;;;;;;5084116;28;20473;-57
2022/05/19 10:49:24;;;;;;;10.82;9.55;;;24.60;99.90;;;;;;5066184;28;20044;-53
2022/05/19 10:52:12;;;;;;;10.30;8.63;;;24.50;99.90;;;;;;4975726;28;20062;-55
2022/05/19 10:54:46;;;;;;;8.77;7.97;;;24.70;99.90;;;;;;4972366;28;20081;-57
2022/05/19 10:57:20;;;;;;;9.45;8.55;;;24.80;99.90;;;;;;4989040;28;20058;-54
2022/05/19 11:00:13;;;;;;;8.15;7.45;;;24.80;99.90;;;;;;4991758;28;20881;-57
2022/05/19 11:03:06;;;;;;;8.93;8.13;;;24.70;99.90;;;;;;4981516;28;20172;-53
2022/05/19 11:06:17;;;;;;;10.20;6.63;;;24.60;99.90;;;;;;4999663;28;20144;-54
2022/05/19 11:09:04;;;;;;;6.70;6.10;;;24.50;99.90;;;;;;4954520;28;20062;-54
2022/05/19 11:11:53;;;;;;;7.63;6.13;;;24.40;99.90;;;;;;4955780;28;20061;-63
2022/05/19 11:15:11;;;;;;;5.22;4.53;;;24.60;99.90;;;;;;4949006;28;20440;-55
2022/05/19 11:17:56;;;;;;;5.78;4.07;;;24.90;99.90;;;;;;4921597;29;20075;-45
2022/05/19 11:20:47;;;;;;;6.88;3.88;;;25.40;99.90;;;;;;4919700;29;20167;-56
2022/05/19 11:23:21;;;;;;;5.55;4.30;;;25.70;99.90;;;;;;4916553;29;20056;-57
2022/05/19 11:29:22;;;;;;;7.10;6.40;;;25.80;99.90;;;;;;4942382;28;20050;-55
2022/05/19 11:32:13;;;;;;;12.27;8.32;;;26.00;99.90;;;;;;4947742;28;20532;-56
2022/05/19 11:35:20;;;;;;;9.75;8.70;;;26.00;99.90;;;;;;4948827;28;20474;-55
2022/05/19 11:38:08;;;;;;;7.03;6.32;;;26.20;99.90;;;;;;4953281;28;20124;-55
2022/05/19 11:40:43;;;;;;;9.00;5.95;;;26.00;99.90;;;;;;4958136;28;20059;-54
2022/05/19 11:43:20;;;;;;;7.32;5.53;;;25.90;99.90;;;;;;4947324;28;20418;-53
2022/05/19 11:46:10;;;;;;;7.78;6.97;;;25.80;99.90;;;;;;4987936;28;20461;-56
2022/05/19 11:55:19;;;;;;;7.57;5.35;;;25.20;99.90;;;;;;5071426;28;20060;-50
2022/05/19 11:58:00;;;;;;;7.93;5.60;;;25.10;99.90;;;;;;5081387;28;20048;-53
2022/05/19 12:00:45;;;;;;;5.50;4.32;;;24.80;99.90;;;;;;5082302;28;20362;-54
2022/05/19 12:03:19;;;;;;;6.28;3.88;;;24.50;99.90;;;;;;5081623;28;20075;-53
2022/05/19 12:06:01;;;;;;;5.38;3.53;;;24.20;99.90;;;;;;5091503;28;20517;-55
2022/05/19 12:08:35;;;;;;;4.63;4.05;;;24.00;99.90;;;;;;5109570;27;20082;-46
2022/05/19 12:11:50;;;;;;;6.43;4.53;;;23.90;99.90;;;;;;5101742;28;20481;-54
2022/05/19 12:14:33;;;;;;;7.30;3.83;;;23.70;99.90;;;;;;5004193;28;20053;-57
2022/05/19 12:16:59;;;;;;;4.20;3.80;;;23.50;99.90;;;;;;4996879;28;20061;-56
2022/05/19 12:19:38;;;;;;;6.05;4.82;;;23.30;99.90;;;;;;5003044;28;20485;-52
2022/05/19 12:22:10;;;;;;;6.00;4.30;;;23.20;99.90;;;;;;4998070;28;20050;-54
2022/05/19 12:24:42;;;;;;;9.50;5.95;;;22.90;99.90;;;;;;4969962;28;20102;-52
2022/05/19 12:27:36;;;;;;;7.88;7.07;;;22.50;99.90;;;;;;5017261;28;20496;-47
2022/05/19 12:33:16;;;;;;;12.35;9.30;;;21.70;99.90;;;;;;4962461;28;20059;-54
2022/05/19 12:35:47;;;;;;;10.13;9.02;;;21.30;99.90;;;;;;4962434;28;20055;-54
2022/05/19 12:38:49;;;;;;;12.05;10.85;;;20.90;99.90;;;;;;4970136;28;20670;-56
2022/05/19 12:41:28;;;;;;;11.43;10.13;;;20.70;99.90;;;;;;4930317;29;20060;-53
2022/05/19 12:43:55;;;;;;;12.05;10.18;;;20.50;99.90;;;;;;4915164;29;20078;-50
2022/05/19 12:46:33;;;;;;;11.23;10.20;;;20.30;99.90;;;;;;4922493;28;20561;-54
2022/05/19 12:49:25;;;;;;;12.48;10.45;;;20.20;99.90;;;;;;4934856;28;20692;-53
2022/05/19 12:52:01;;;;;;;16.17;11.27;;;20.10;99.90;;;;;;5001494;28;20052;-54
2022/05/19 12:54:31;;;;;;;11.90;10.30;;;19.90;99.90;;;;;;5019097;28;20061;-50
2022/05/19 12:57:11;;;;;;;14.18;10.70;;;19.80;99.90;;;;;;5003116;28;20065;-49
2022/05/19 13:00:11;;;;;;;12.85;9.57;;;19.80;99.90;;;;;;4986670;28;20049;-49
2022/05/19 13:02:56;;;;;;;13.32;10.63;;;19.70;99.90;;;;;;4996853;28;20112;-50
2022/05/19 13:05:30;;;;;;;9.75;8.43;;;19.50;99.90;;;;;;4990721;28;20513;-53
2022/05/19 13:08:06;;;;;;;12.50;8.40;;;19.50;99.90;;;;;;5011905;28;20167;-54
2022/05/19 13:10:42;;;;;;;14.45;8.95;;;19.30;99.90;;;;;;5016406;28;20130;-47
2022/05/19 13:13:16;;;;;;;13.82;8.57;;;19.10;99.90;;;;;;5017792;28;20566;-50
2022/05/19 13:16:19;;;;;;;12.88;9.15;;;19.00;99.90;;;;;;5054580;28;20059;-51
2022/05/19 13:18:52;;;;;;;12.27;8.57;;;18.90;99.90;;;;;;5049209;28;20066;-49
2022/05/19 13:21:28;;;;;;;17.38;10.35;;;18.90;99.90;;;;;;5071273;28;20459;-53